Time;durP1;ratioP1;P1;durP2;ratioP2;P2;SDS_P1;SDS_P2;PMS_P1;PMS_P2;Temp;Humidity;BMP_temperature;BMP_pressure;BME280_temperature;BME280_humidity;BME280_pressure;Samples;Min_cycle;Max_cycle;Signal;HPM_P1;HPM_P2
2022/03/13 00:02:15;;;;;;;19.75;13.85;;;9.30;99.90;;;;;;5073555;28;20141;-61
2022/03/13 00:04:42;;;;;;;20.27;13.88;;;9.30;99.90;;;;;;5073932;28;20048;-61
2022/03/13 00:07:19;;;;;;;20.52;13.73;;;9.30;99.90;;;;;;5073687;28;20040;-60
2022/03/13 00:09:48;;;;;;;18.40;13.70;;;9.30;99.90;;;;;;5053102;28;20048;-61
2022/03/13 00:12:15;;;;;;;17.35;12.60;;;9.30;99.90;;;;;;5053417;28;20037;-60
2022/03/13 00:14:44;;;;;;;21.58;14.23;;;9.30;99.90;;;;;;5053960;28;20041;-61
2022/03/13 00:17:16;;;;;;;19.02;13.45;;;9.30;99.90;;;;;;5053930;28;20072;-61
2022/03/13 00:19:42;;;;;;;18.13;13.13;;;9.30;99.90;;;;;;5053381;28;20056;-61
2022/03/13 00:22:10;;;;;;;19.20;13.13;;;9.30;99.90;;;;;;5053387;28;20047;-60
2022/03/13 00:24:36;;;;;;;20.15;13.23;;;9.30;99.90;;;;;;5053548;28;20107;-61
2022/03/13 00:27:02;;;;;;;18.58;13.48;;;9.40;99.90;;;;;;5053807;28;20041;-61
2022/03/13 00:29:29;;;;;;;18.35;13.50;;;9.30;99.90;;;;;;5071566;28;20041;-61
2022/03/13 00:31:54;;;;;;;17.30;12.80;;;9.40;99.90;;;;;;5073094;28;20120;-61
2022/03/13 00:34:20;;;;;;;17.52;12.35;;;9.40;99.90;;;;;;5073796;28;20473;-61
2022/03/13 00:36:46;;;;;;;17.42;12.65;;;9.40;99.90;;;;;;5070125;28;20033;-61
2022/03/13 00:39:11;;;;;;;16.90;13.10;;;9.40;99.90;;;;;;5052720;28;20044;-61
2022/03/13 00:41:38;;;;;;;16.70;12.82;;;9.40;99.90;;;;;;5073046;28;20040;-61
2022/03/13 00:44:05;;;;;;;17.25;12.27;;;9.40;99.90;;;;;;5073697;28;20123;-61
2022/03/13 00:46:32;;;;;;;17.60;12.88;;;9.40;99.90;;;;;;5073394;28;20040;-61
2022/03/13 00:48:58;;;;;;;18.48;12.35;;;9.40;99.90;;;;;;5073363;28;20032;-62
2022/03/13 00:51:23;;;;;;;18.15;13.50;;;9.50;99.90;;;;;;5073074;28;20038;-61
2022/03/13 00:53:49;;;;;;;17.02;12.05;;;9.50;99.90;;;;;;5073612;28;20174;-60
2022/03/13 00:56:15;;;;;;;17.42;12.70;;;9.50;99.90;;;;;;5073240;28;20446;-61
2022/03/13 00:58:42;;;;;;;18.70;13.38;;;9.50;99.90;;;;;;5073312;28;20041;-61
2022/03/13 01:01:10;;;;;;;15.55;12.27;;;9.50;99.90;;;;;;5072043;28;20061;-61
2022/03/13 01:03:35;;;;;;;16.20;11.77;;;9.40;99.90;;;;;;5066174;28;20052;-61
2022/03/13 01:06:04;;;;;;;17.90;13.20;;;9.50;99.90;;;;;;5053367;28;20041;-61
2022/03/13 01:08:31;;;;;;;16.77;11.80;;;9.50;99.90;;;;;;5064224;28;20048;-61
2022/03/13 01:10:57;;;;;;;16.55;12.50;;;9.50;99.90;;;;;;5073120;28;20046;-61
2022/03/13 01:13:23;;;;;;;18.00;11.95;;;9.40;99.90;;;;;;5073343;28;20044;-60
2022/03/13 01:15:54;;;;;;;18.70;13.57;;;9.40;99.90;;;;;;5073247;28;20036;-61
2022/03/13 01:18:19;;;;;;;16.77;12.05;;;9.40;99.90;;;;;;5074585;28;20037;-61
2022/03/13 01:20:47;;;;;;;18.23;13.18;;;9.40;99.90;;;;;;5076225;28;20054;-60
2022/03/13 01:23:14;;;;;;;16.90;12.73;;;9.40;99.90;;;;;;5076918;28;20173;-60
2022/03/13 01:25:39;;;;;;;16.65;12.63;;;9.40;99.90;;;;;;5076842;28;20052;-60
2022/03/13 01:28:05;;;;;;;16.80;12.82;;;9.40;99.90;;;;;;5076725;28;20036;-60
2022/03/13 01:30:31;;;;;;;18.70;13.20;;;9.30;99.90;;;;;;5076370;28;20041;-61
2022/03/13 01:32:57;;;;;;;17.45;13.00;;;9.40;99.90;;;;;;5076684;28;20040;-60
2022/03/13 01:35:24;;;;;;;17.05;12.80;;;9.30;99.90;;;;;;5076884;28;20040;-61
2022/03/13 01:37:51;;;;;;;16.60;13.15;;;9.20;99.90;;;;;;5076638;28;20040;-62
2022/03/13 01:40:24;;;;;;;17.48;13.68;;;9.20;99.90;;;;;;5075115;28;20043;-62
2022/03/13 01:42:51;;;;;;;18.27;13.32;;;9.20;99.90;;;;;;5076435;28;20041;-60
2022/03/13 01:45:19;;;;;;;17.42;13.10;;;9.10;99.90;;;;;;5076159;28;20036;-60
2022/03/13 01:47:46;;;;;;;19.40;13.68;;;9.10;99.90;;;;;;5076191;28;20040;-60
2022/03/13 01:50:13;;;;;;;16.48;12.95;;;9.10;99.90;;;;;;5076157;28;20110;-61
2022/03/13 01:52:44;;;;;;;18.35;13.25;;;9.20;99.90;;;;;;5076069;28;20462;-61
2022/03/13 01:55:10;;;;;;;17.48;12.77;;;9.20;99.90;;;;;;5076156;28;20377;-61
2022/03/13 01:57:40;;;;;;;18.92;13.85;;;9.10;99.90;;;;;;5076007;28;20047;-60
2022/03/13 02:00:08;;;;;;;19.20;13.38;;;9.10;99.90;;;;;;5076043;28;20106;-61
2022/03/13 02:02:34;;;;;;;18.60;13.65;;;9.00;99.90;;;;;;5076114;28;20123;-60
2022/03/13 02:05:01;;;;;;;21.23;13.82;;;8.90;99.90;;;;;;5076228;28;20052;-62
2022/03/13 02:07:28;;;;;;;20.45;13.00;;;8.90;99.90;;;;;;5074677;28;20102;-60
2022/03/13 02:09:55;;;;;;;20.10;14.18;;;8.90;99.90;;;;;;5075974;28;20045;-60
2022/03/13 02:12:24;;;;;;;19.98;13.27;;;8.90;99.90;;;;;;5076131;28;20047;-61
2022/03/13 02:14:50;;;;;;;17.63;12.93;;;9.00;99.90;;;;;;5075853;28;20040;-60
2022/03/13 02:17:34;;;;;;;18.75;13.13;;;9.00;99.90;;;;;;5074510;28;20059;-61
2022/03/13 02:19:59;;;;;;;20.08;13.73;;;9.00;99.90;;;;;;5075080;28;20355;-60
2022/03/13 02:22:25;;;;;;;17.95;13.40;;;9.00;99.90;;;;;;5075614;28;20119;-60
2022/03/13 02:24:52;;;;;;;16.60;13.10;;;9.00;99.90;;;;;;5075936;28;20120;-61
2022/03/13 02:27:26;;;;;;;18.20;13.73;;;8.90;99.90;;;;;;5075682;28;20036;-61
2022/03/13 02:29:51;;;;;;;20.67;14.32;;;8.90;99.90;;;;;;5055355;28;20048;-60
2022/03/13 02:32:18;;;;;;;19.45;14.15;;;8.90;99.90;;;;;;5055533;28;20033;-61
2022/03/13 02:34:46;;;;;;;18.02;12.43;;;8.90;99.90;;;;;;5055576;28;20110;-61
2022/03/13 02:37:40;;;;;;;19.15;14.07;;;8.90;99.90;;;;;;5055605;28;20080;-60
2022/03/13 02:40:12;;;;;;;22.08;14.35;;;8.90;99.90;;;;;;5055199;28;20059;-60
2022/03/13 02:42:38;;;;;;;19.75;13.95;;;9.00;99.90;;;;;;5055492;28;20098;-61
2022/03/13 02:45:04;;;;;;;19.45;14.02;;;8.90;99.90;;;;;;5055376;28;20319;-60
2022/03/13 02:47:29;;;;;;;21.27;14.15;;;8.90;99.90;;;;;;5055685;28;20120;-61
2022/03/13 02:49:55;;;;;;;17.85;13.48;;;8.90;99.90;;;;;;5074157;28;20040;-61
2022/03/13 02:52:21;;;;;;;17.05;13.05;;;8.90;99.90;;;;;;5075034;28;20039;-61
2022/03/13 02:54:47;;;;;;;20.45;14.38;;;8.90;99.90;;;;;;5073935;28;20093;-61
2022/03/13 02:57:14;;;;;;;19.00;13.88;;;8.90;99.90;;;;;;5075192;28;20131;-60
2022/03/13 02:59:40;;;;;;;23.50;13.73;;;8.90;99.90;;;;;;5074838;28;20052;-61
2022/03/13 03:02:06;;;;;;;19.10;13.63;;;8.90;99.90;;;;;;5074628;28;20037;-61
2022/03/13 03:04:31;;;;;;;18.50;13.48;;;9.00;99.90;;;;;;5074960;28;20087;-61
2022/03/13 03:07:02;;;;;;;18.05;12.90;;;9.00;99.90;;;;;;5074998;28;20373;-60
2022/03/13 03:09:29;;;;;;;16.98;13.02;;;9.00;99.90;;;;;;5074694;28;20154;-61
2022/03/13 03:11:57;;;;;;;16.83;13.35;;;8.90;99.90;;;;;;5074614;28;20047;-60
2022/03/13 03:14:23;;;;;;;22.52;13.55;;;8.90;99.90;;;;;;5074882;28;20044;-61
2022/03/13 03:16:49;;;;;;;18.80;13.63;;;8.90;99.90;;;;;;5074730;28;20025;-61
2022/03/13 03:19:15;;;;;;;19.48;14.02;;;8.90;99.90;;;;;;5073799;28;20389;-60
2022/03/13 03:21:41;;;;;;;18.85;13.15;;;9.00;99.90;;;;;;5073278;28;20044;-60
2022/03/13 03:24:12;;;;;;;18.83;13.18;;;8.90;99.90;;;;;;5074391;28;20032;-60
2022/03/13 03:26:38;;;;;;;19.20;13.70;;;8.90;99.90;;;;;;5073403;28;20074;-60
2022/03/13 03:29:04;;;;;;;19.10;12.90;;;8.80;99.90;;;;;;5074171;28;20036;-61
2022/03/13 03:31:31;;;;;;;18.25;13.52;;;8.80;99.90;;;;;;5073427;28;20498;-61
2022/03/13 03:33:57;;;;;;;19.42;14.10;;;8.70;99.90;;;;;;5074659;28;20124;-60
2022/03/13 03:36:22;;;;;;;18.73;13.63;;;8.70;99.90;;;;;;5074318;28;20420;-61
2022/03/13 03:38:48;;;;;;;18.85;14.18;;;8.60;99.90;;;;;;5074238;28;20069;-60
2022/03/13 03:41:14;;;;;;;19.48;13.55;;;8.70;99.90;;;;;;5073480;28;20075;-60
2022/03/13 03:43:39;;;;;;;19.40;13.25;;;8.50;99.90;;;;;;5074035;28;20377;-61
2022/03/13 03:46:05;;;;;;;19.80;13.90;;;8.50;99.90;;;;;;5074164;28;20040;-61
2022/03/13 03:48:31;;;;;;;18.00;12.90;;;8.40;99.90;;;;;;5073987;28;20052;-61
2022/03/13 03:50:57;;;;;;;19.20;13.60;;;8.40;99.90;;;;;;5073634;28;20058;-61
2022/03/13 03:53:22;;;;;;;17.13;13.18;;;8.40;99.90;;;;;;5074399;28;20121;-61
2022/03/13 03:55:48;;;;;;;19.92;14.23;;;8.30;99.90;;;;;;5074154;28;20044;-61
2022/03/13 03:58:13;;;;;;;19.95;14.07;;;8.30;99.90;;;;;;5073958;28;20044;-61
2022/03/13 04:00:39;;;;;;;19.13;13.88;;;8.30;99.90;;;;;;5073861;28;20406;-61
2022/03/13 04:03:05;;;;;;;18.80;13.50;;;8.30;99.90;;;;;;5073940;28;20083;-61
2022/03/13 04:05:32;;;;;;;18.75;13.80;;;8.30;99.90;;;;;;5073986;28;20045;-61
2022/03/13 04:07:58;;;;;;;18.50;13.52;;;8.20;99.90;;;;;;5073451;28;20369;-61
2022/03/13 04:10:25;;;;;;;18.65;13.20;;;8.20;99.90;;;;;;5073729;28;20051;-61
2022/03/13 04:12:50;;;;;;;19.48;14.18;;;8.10;99.90;;;;;;5072841;28;20327;-61
2022/03/13 04:15:16;;;;;;;19.50;13.55;;;8.10;99.90;;;;;;5073958;28;20052;-61
2022/03/13 04:17:41;;;;;;;19.80;14.15;;;8.10;99.90;;;;;;5073177;28;20059;-61
2022/03/13 04:20:08;;;;;;;21.10;13.90;;;8.10;99.90;;;;;;5073123;28;20052;-61
2022/03/13 04:22:34;;;;;;;19.52;14.30;;;8.10;99.90;;;;;;5072658;28;20056;-61
2022/03/13 04:25:00;;;;;;;20.00;14.48;;;8.00;99.90;;;;;;5073669;28;20056;-61
2022/03/13 04:27:27;;;;;;;17.98;14.07;;;8.00;99.90;;;;;;5073240;28;20041;-60
2022/03/13 04:29:53;;;;;;;20.30;14.18;;;7.90;99.90;;;;;;5073217;28;20697;-61
2022/03/13 04:32:22;;;;;;;20.17;14.32;;;7.90;99.90;;;;;;5073556;28;20089;-61
2022/03/13 04:34:48;;;;;;;19.38;13.68;;;7.90;99.90;;;;;;5072539;28;20123;-60
2022/03/13 04:37:16;;;;;;;17.38;13.65;;;7.90;99.90;;;;;;5073793;28;20124;-60
2022/03/13 04:39:42;;;;;;;18.75;13.52;;;7.90;99.90;;;;;;5072832;28;20469;-61
2022/03/13 04:42:08;;;;;;;20.95;14.23;;;7.90;99.90;;;;;;5072709;28;20123;-61
2022/03/13 04:44:34;;;;;;;21.35;14.13;;;7.90;99.90;;;;;;5072398;28;20369;-61
2022/03/13 04:47:00;;;;;;;20.63;15.40;;;7.80;99.90;;;;;;5073561;28;20041;-60
2022/03/13 04:49:26;;;;;;;17.27;12.75;;;7.80;99.90;;;;;;5073345;28;20043;-60
2022/03/13 04:51:52;;;;;;;18.85;13.85;;;7.90;99.90;;;;;;5073483;28;20028;-61
2022/03/13 04:54:18;;;;;;;18.25;13.40;;;7.80;99.90;;;;;;5076427;28;20040;-60
2022/03/13 04:56:44;;;;;;;19.15;13.68;;;7.90;99.90;;;;;;5077502;28;20098;-60
2022/03/13 04:59:11;;;;;;;18.85;13.98;;;8.00;99.90;;;;;;5077315;28;20040;-60
2022/03/13 05:01:36;;;;;;;17.02;13.48;;;8.00;99.90;;;;;;5076901;28;20052;-60
2022/03/13 05:04:02;;;;;;;18.05;13.57;;;8.00;99.90;;;;;;5077418;28;20028;-60
2022/03/13 05:06:28;;;;;;;18.50;13.40;;;8.00;99.90;;;;;;5076082;28;20533;-60
2022/03/13 05:08:54;;;;;;;18.77;13.60;;;8.00;99.90;;;;;;5075996;28;20044;-60
2022/03/13 05:11:20;;;;;;;19.65;13.80;;;8.00;99.90;;;;;;5076684;28;20121;-60
2022/03/13 05:13:45;;;;;;;19.10;13.63;;;8.00;99.90;;;;;;5076301;28;20036;-60
2022/03/13 05:16:11;;;;;;;16.10;12.57;;;8.00;99.90;;;;;;5075758;28;20045;-61
2022/03/13 05:18:37;;;;;;;18.48;13.25;;;8.00;99.90;;;;;;5076881;28;20044;-60
2022/03/13 05:21:03;;;;;;;17.90;13.52;;;8.00;99.90;;;;;;5076213;28;20056;-61
2022/03/13 05:23:28;;;;;;;17.55;13.80;;;8.00;99.90;;;;;;5076629;28;20040;-61
2022/03/13 05:25:54;;;;;;;18.95;13.18;;;7.90;99.90;;;;;;5076609;28;20055;-60
2022/03/13 05:28:20;;;;;;;18.58;13.55;;;7.90;99.90;;;;;;5076765;28;20041;-61
2022/03/13 05:30:46;;;;;;;19.13;13.57;;;7.90;99.90;;;;;;5076232;28;20105;-60
2022/03/13 05:33:12;;;;;;;17.80;13.38;;;7.90;99.90;;;;;;5076737;28;20051;-61
2022/03/13 05:35:37;;;;;;;18.08;12.27;;;7.90;99.90;;;;;;5076562;28;20044;-60
2022/03/13 05:38:03;;;;;;;17.23;12.73;;;7.90;99.90;;;;;;5076140;28;20036;-61
2022/03/13 05:40:29;;;;;;;17.77;12.95;;;7.90;99.90;;;;;;5076075;28;20040;-60
2022/03/13 05:42:58;;;;;;;17.58;12.35;;;8.00;99.90;;;;;;5076601;28;20051;-61
2022/03/13 05:45:27;;;;;;;18.98;12.85;;;8.10;99.90;;;;;;5076961;28;20048;-60
2022/03/13 05:47:58;;;;;;;20.20;13.07;;;8.00;99.90;;;;;;5076335;28;20093;-61
2022/03/13 05:50:27;;;;;;;19.83;13.60;;;8.00;99.90;;;;;;5076117;28;20048;-61
2022/03/13 05:52:55;;;;;;;19.60;12.77;;;8.10;99.90;;;;;;5076613;28;20082;-61
2022/03/13 05:55:21;;;;;;;17.88;13.00;;;8.00;99.90;;;;;;5076503;28;20430;-61
2022/03/13 05:57:47;;;;;;;18.33;13.20;;;8.00;99.90;;;;;;5075835;28;20378;-60
2022/03/13 06:00:15;;;;;;;18.17;12.93;;;8.00;99.90;;;;;;5076096;28;20056;-61
2022/03/13 06:02:41;;;;;;;18.30;13.00;;;8.00;99.90;;;;;;5074882;28;20111;-60
2022/03/13 06:05:09;;;;;;;19.38;14.10;;;8.00;99.90;;;;;;5075759;28;20060;-60
2022/03/13 06:07:36;;;;;;;16.77;12.88;;;7.90;99.90;;;;;;5075884;28;20047;-61
2022/03/13 06:10:03;;;;;;;18.27;13.20;;;7.90;99.90;;;;;;5055645;28;20040;-60
2022/03/13 06:12:30;;;;;;;19.17;12.75;;;7.90;99.90;;;;;;5056012;28;20037;-60
2022/03/13 06:14:57;;;;;;;18.45;12.52;;;7.90;99.90;;;;;;5055998;28;20045;-61
2022/03/13 06:17:24;;;;;;;19.23;13.32;;;8.00;99.90;;;;;;5055653;28;20049;-61
2022/03/13 06:19:50;;;;;;;19.67;13.45;;;8.10;99.90;;;;;;5073384;28;20052;-61
2022/03/13 06:22:16;;;;;;;17.83;12.60;;;8.00;99.90;;;;;;5075923;28;20426;-60
2022/03/13 06:24:42;;;;;;;17.23;12.75;;;8.00;99.90;;;;;;5075468;28;20105;-60
2022/03/13 06:27:09;;;;;;;17.27;13.05;;;8.00;99.90;;;;;;5075851;28;20107;-60
2022/03/13 06:29:35;;;;;;;18.45;13.65;;;8.00;99.90;;;;;;5074800;28;20032;-61
2022/03/13 06:32:01;;;;;;;17.73;12.57;;;8.10;99.90;;;;;;5075410;28;20047;-61
2022/03/13 06:34:26;;;;;;;17.10;12.77;;;8.20;99.90;;;;;;5075429;28;20036;-61
2022/03/13 06:36:52;;;;;;;21.25;13.68;;;8.40;99.90;;;;;;5075898;28;20037;-60
2022/03/13 06:39:18;;;;;;;17.38;12.93;;;8.40;99.90;;;;;;5075289;28;20117;-60
2022/03/13 06:41:44;;;;;;;18.70;13.75;;;8.40;99.90;;;;;;5074058;28;20044;-61
2022/03/13 06:44:09;;;;;;;17.75;13.05;;;8.20;99.90;;;;;;5075481;28;20032;-60
2022/03/13 06:46:35;;;;;;;18.52;12.73;;;8.30;99.90;;;;;;5075240;28;20040;-61
2022/03/13 06:49:04;;;;;;;16.30;12.15;;;8.30;99.90;;;;;;5075127;28;20089;-60
2022/03/13 06:51:30;;;;;;;17.02;12.60;;;8.30;99.90;;;;;;5073714;28;20042;-61
2022/03/13 06:53:56;;;;;;;18.55;13.90;;;8.10;99.90;;;;;;5074099;28;20044;-61
2022/03/13 06:56:22;;;;;;;23.38;13.75;;;8.10;99.90;;;;;;5074150;28;20209;-60
2022/03/13 06:58:47;;;;;;;16.95;12.75;;;8.10;99.90;;;;;;5073708;28;20051;-59
2022/03/13 07:01:13;;;;;;;17.38;13.18;;;8.00;99.90;;;;;;5074632;28;20048;-60
2022/03/13 07:03:39;;;;;;;16.90;12.27;;;8.10;99.90;;;;;;5074922;28;20036;-60
2022/03/13 07:06:05;;;;;;;18.25;13.05;;;8.10;99.90;;;;;;5073769;28;20048;-61
2022/03/13 07:08:34;;;;;;;19.40;13.70;;;8.00;99.90;;;;;;5074711;28;20036;-60
2022/03/13 07:11:01;;;;;;;19.15;13.48;;;8.10;99.90;;;;;;5074640;28;20040;-61
2022/03/13 07:13:31;;;;;;;20.38;13.80;;;8.00;99.90;;;;;;5074980;28;20086;-61
2022/03/13 07:16:01;;;;;;;17.48;13.77;;;8.00;99.90;;;;;;5074022;28;20036;-61
2022/03/13 07:18:27;;;;;;;19.33;13.95;;;8.00;99.90;;;;;;5074393;28;20040;-61
2022/03/13 07:20:53;;;;;;;17.23;13.18;;;7.90;99.90;;;;;;5074173;28;20117;-61
2022/03/13 07:23:19;;;;;;;19.02;13.50;;;7.90;99.90;;;;;;5074461;28;20076;-61
2022/03/13 07:25:44;;;;;;;19.60;13.05;;;7.90;99.90;;;;;;5074285;28;20087;-61
2022/03/13 07:28:10;;;;;;;17.35;13.13;;;8.00;99.90;;;;;;5073509;28;20111;-60
2022/03/13 07:30:35;;;;;;;18.13;12.93;;;8.00;99.90;;;;;;5074194;28;20070;-60
2022/03/13 07:33:01;;;;;;;18.20;14.00;;;8.10;99.90;;;;;;5074329;28;20045;-61
2022/03/13 07:35:27;;;;;;;17.30;13.40;;;8.00;99.90;;;;;;5074531;28;20101;-61
2022/03/13 07:37:53;;;;;;;17.55;12.77;;;8.00;99.90;;;;;;5074101;28;20033;-60
2022/03/13 07:40:19;;;;;;;17.10;13.02;;;8.10;99.90;;;;;;5074089;28;20032;-61
2022/03/13 07:42:44;;;;;;;18.85;13.07;;;8.10;99.90;;;;;;5074289;28;20036;-61
2022/03/13 07:45:10;;;;;;;18.45;12.85;;;8.20;99.90;;;;;;5074258;28;20041;-60
2022/03/13 07:47:36;;;;;;;17.42;12.68;;;8.20;99.90;;;;;;5073989;28;20471;-60
2022/03/13 07:50:03;;;;;;;17.50;12.75;;;8.20;99.90;;;;;;5073847;28;20055;-61
2022/03/13 07:52:28;;;;;;;16.88;13.05;;;8.20;99.90;;;;;;5074209;28;20174;-61
2022/03/13 07:54:54;;;;;;;19.08;13.40;;;8.20;99.90;;;;;;5073031;28;20123;-60
2022/03/13 07:57:20;;;;;;;17.90;13.30;;;8.30;99.90;;;;;;5059915;28;20159;-61
2022/03/13 07:59:47;;;;;;;18.13;12.70;;;8.40;99.90;;;;;;5054229;28;20106;-61
2022/03/13 08:02:15;;;;;;;16.73;13.18;;;8.40;99.90;;;;;;5052098;28;20477;-60
2022/03/13 08:04:42;;;;;;;17.38;13.32;;;8.40;99.90;;;;;;5053292;28;20036;-61
2022/03/13 08:07:08;;;;;;;22.10;13.10;;;8.50;99.90;;;;;;5053152;28;20028;-60
2022/03/13 08:09:38;;;;;;;18.70;12.68;;;8.50;99.90;;;;;;5055376;28;20120;-60
2022/03/13 08:12:05;;;;;;;17.17;12.98;;;8.50;99.90;;;;;;5052988;28;20526;-60
2022/03/13 08:14:31;;;;;;;19.75;12.98;;;8.50;99.90;;;;;;5051885;28;20084;-61
2022/03/13 08:16:56;;;;;;;17.35;13.05;;;8.60;99.90;;;;;;5053247;28;20069;-61
2022/03/13 08:19:22;;;;;;;17.63;12.63;;;8.60;99.90;;;;;;5055900;28;20347;-61
2022/03/13 08:21:48;;;;;;;16.10;12.10;;;8.80;99.90;;;;;;5052725;28;20103;-62
2022/03/13 08:24:17;;;;;;;16.10;12.57;;;9.00;99.90;;;;;;5052707;28;20849;-61
2022/03/13 08:26:43;;;;;;;16.75;12.18;;;9.20;99.90;;;;;;5053495;28;20049;-61
2022/03/13 08:29:10;;;;;;;18.23;12.70;;;9.40;99.90;;;;;;5061054;28;20037;-61
2022/03/13 08:31:37;;;;;;;18.58;12.93;;;9.60;99.90;;;;;;5058090;28;20048;-61
2022/03/13 08:34:07;;;;;;;18.92;11.95;;;9.70;99.90;;;;;;5059376;28;20041;-61
2022/03/13 08:36:34;;;;;;;15.15;11.68;;;9.80;99.90;;;;;;5058578;28;20041;-60
2022/03/13 08:38:59;;;;;;;16.48;11.95;;;9.80;99.90;;;;;;5062005;28;20040;-60
2022/03/13 08:41:25;;;;;;;16.17;12.27;;;9.80;99.90;;;;;;5058209;28;20044;-60
2022/03/13 08:43:51;;;;;;;16.30;11.73;;;9.90;99.90;;;;;;5059807;28;20033;-60
2022/03/13 08:46:17;;;;;;;18.80;12.77;;;9.90;99.90;;;;;;5059124;28;20110;-60
2022/03/13 08:48:43;;;;;;;20.15;11.85;;;9.90;99.10;;;;;;5061941;28;20033;-60
2022/03/13 08:51:12;;;;;;;17.58;12.65;;;10.10;99.40;;;;;;5058461;28;20365;-62
2022/03/13 08:53:37;;;;;;;16.80;11.65;;;10.20;99.60;;;;;;5059717;28;20081;-61
2022/03/13 08:56:03;;;;;;;17.75;12.15;;;10.30;98.70;;;;;;5059570;28;20465;-61
2022/03/13 08:58:29;;;;;;;16.67;11.95;;;10.40;98.60;;;;;;5061399;28;20041;-61
2022/03/13 09:00:56;;;;;;;19.55;12.23;;;10.60;98.20;;;;;;5067544;28;20040;-61
2022/03/13 09:03:21;;;;;;;18.90;12.23;;;10.60;97.40;;;;;;5064788;28;20076;-60
2022/03/13 09:05:48;;;;;;;18.02;11.85;;;10.70;97.80;;;;;;5069731;28;20080;-62
2022/03/13 09:08:15;;;;;;;17.73;11.77;;;10.90;97.40;;;;;;5056665;28;20101;-60
2022/03/13 09:10:41;;;;;;;16.95;11.85;;;11.10;97.10;;;;;;5056211;28;20116;-61
2022/03/13 09:13:07;;;;;;;18.67;11.98;;;11.30;96.50;;;;;;5057784;28;20167;-61
2022/03/13 09:15:32;;;;;;;18.48;11.23;;;11.40;95.90;;;;;;5058046;28;20045;-60
2022/03/13 09:18:02;;;;;;;16.73;12.18;;;11.50;95.30;;;;;;5060092;28;20037;-60
2022/03/13 09:20:28;;;;;;;17.70;11.65;;;11.60;95.50;;;;;;5077568;28;20143;-61
2022/03/13 09:22:55;;;;;;;15.23;10.95;;;11.70;95.20;;;;;;5077919;28;20413;-61
2022/03/13 09:25:21;;;;;;;15.93;12.05;;;11.80;94.90;;;;;;5067279;28;20472;-60
2022/03/13 09:27:48;;;;;;;17.63;11.77;;;11.90;94.80;;;;;;5057221;28;20276;-60
2022/03/13 09:30:14;;;;;;;16.52;11.10;;;12.00;94.90;;;;;;5057245;28;20748;-60
2022/03/13 09:32:43;;;;;;;16.02;11.85;;;12.00;94.70;;;;;;5058833;28;20464;-60
2022/03/13 09:35:10;;;;;;;17.27;12.55;;;12.10;94.60;;;;;;5059850;28;20041;-60
2022/03/13 09:37:35;;;;;;;16.42;12.43;;;12.20;94.30;;;;;;5059603;28;20045;-63
2022/03/13 09:40:01;;;;;;;17.00;11.73;;;12.30;94.70;;;;;;5074054;28;20109;-61
2022/03/13 09:42:27;;;;;;;16.45;12.15;;;12.40;93.90;;;;;;5075047;28;20169;-61
2022/03/13 09:44:52;;;;;;;17.92;12.18;;;12.60;93.80;;;;;;5076669;28;20075;-60
2022/03/13 09:47:19;;;;;;;16.33;11.75;;;12.70;93.70;;;;;;5076521;28;20044;-60
2022/03/13 09:49:44;;;;;;;17.83;12.55;;;12.80;93.60;;;;;;5075567;28;20119;-60
2022/03/13 09:52:10;;;;;;;16.20;12.20;;;12.90;93.00;;;;;;5061452;28;20089;-61
2022/03/13 09:54:36;;;;;;;17.75;12.75;;;13.00;92.90;;;;;;5054716;28;20114;-61
2022/03/13 09:57:04;;;;;;;15.35;11.75;;;13.00;92.50;;;;;;5055859;28;20025;-62
2022/03/13 09:59:30;;;;;;;15.43;11.85;;;13.00;91.90;;;;;;5057658;28;20037;-62
2022/03/13 10:01:56;;;;;;;18.52;12.23;;;13.10;92.60;;;;;;5038010;28;20119;-60
2022/03/13 10:04:22;;;;;;;17.35;11.65;;;13.30;91.80;;;;;;5056395;28;20120;-62
2022/03/13 10:07:11;;;;;;;19.35;11.80;;;13.40;92.20;;;;;;5055955;28;20040;-60
2022/03/13 10:09:40;;;;;;;18.38;11.70;;;13.60;91.60;;;;;;5071360;28;20393;-60
2022/03/13 10:12:15;;;;;;;16.92;12.48;;;13.60;91.60;;;;;;5076143;28;20029;-60
2022/03/13 10:15:07;;;;;;;17.08;11.98;;;13.70;90.90;;;;;;5075945;28;20327;-60
2022/03/13 10:17:35;;;;;;;15.75;12.20;;;13.70;91.20;;;;;;5075545;28;20466;-60
2022/03/13 10:20:19;;;;;;;17.65;12.63;;;13.80;91.20;;;;;;5075063;28;20071;-61
2022/03/13 10:22:47;;;;;;;18.30;12.45;;;13.90;91.20;;;;;;5063056;28;20120;-61
2022/03/13 10:25:14;;;;;;;16.95;11.93;;;14.00;91.00;;;;;;5055329;28;20040;-61
2022/03/13 10:27:43;;;;;;;18.55;12.48;;;14.00;91.20;;;;;;5055288;28;20037;-60
2022/03/13 10:30:09;;;;;;;16.10;12.55;;;14.10;90.70;;;;;;5056855;28;20114;-61
2022/03/13 10:32:38;;;;;;;16.25;12.45;;;14.10;91.00;;;;;;5054996;28;20029;-60
2022/03/13 10:35:05;;;;;;;16.98;12.93;;;14.20;91.00;;;;;;5055187;28;20036;-61
2022/03/13 10:37:39;;;;;;;16.48;12.85;;;14.30;90.90;;;;;;5055358;28;20358;-61
2022/03/13 10:40:18;;;;;;;16.90;13.15;;;14.30;90.90;;;;;;5056952;28;20045;-60
2022/03/13 10:42:44;;;;;;;18.23;13.65;;;14.30;91.30;;;;;;5053834;28;20109;-60
2022/03/13 10:45:14;;;;;;;19.13;12.95;;;14.20;91.20;;;;;;5035866;28;20048;-62
2022/03/13 10:47:39;;;;;;;19.40;12.95;;;14.30;91.10;;;;;;5053914;28;20028;-60
2022/03/13 10:50:06;;;;;;;16.30;12.82;;;14.30;91.10;;;;;;5054867;28;20033;-60
2022/03/13 10:52:36;;;;;;;18.30;13.77;;;14.20;91.30;;;;;;5054251;28;20420;-61
2022/03/13 10:55:22;;;;;;;16.92;12.52;;;14.30;91.10;;;;;;5053979;28;20131;-61
2022/03/13 10:57:52;;;;;;;17.98;12.88;;;14.20;91.20;;;;;;5055236;28;20041;-60
2022/03/13 11:00:20;;;;;;;18.27;13.63;;;14.20;90.70;;;;;;5074188;28;20441;-60
2022/03/13 11:02:45;;;;;;;19.30;12.73;;;14.10;90.60;;;;;;5054452;28;20107;-60
2022/03/13 11:05:11;;;;;;;18.00;12.93;;;14.10;90.80;;;;;;5054989;28;20053;-61
2022/03/13 11:07:37;;;;;;;16.13;12.13;;;14.20;91.40;;;;;;5053672;28;20040;-60
2022/03/13 11:10:06;;;;;;;17.83;13.38;;;14.30;91.60;;;;;;5073188;28;20033;-61
2022/03/13 11:12:32;;;;;;;17.15;12.40;;;14.40;91.50;;;;;;5074877;28;20073;-62
2022/03/13 11:15:00;;;;;;;17.80;13.13;;;14.60;90.40;;;;;;5056025;28;20053;-63
2022/03/13 11:17:30;;;;;;;17.08;12.50;;;14.50;90.50;;;;;;5053099;28;20036;-61
2022/03/13 11:19:58;;;;;;;19.40;13.13;;;14.60;90.50;;;;;;5054334;28;20053;-60
2022/03/13 11:22:26;;;;;;;16.70;12.77;;;14.70;90.70;;;;;;5054771;28;20120;-60
2022/03/13 11:25:00;;;;;;;18.83;12.65;;;14.80;90.10;;;;;;5054765;28;20041;-61
2022/03/13 11:27:27;;;;;;;16.42;12.48;;;14.90;89.40;;;;;;5054634;28;20049;-61
2022/03/13 11:29:54;;;;;;;17.90;13.57;;;14.90;90.00;;;;;;5059314;28;20076;-61
2022/03/13 11:32:47;;;;;;;18.38;13.00;;;15.00;89.40;;;;;;5054503;28;20150;-60
2022/03/13 11:35:16;;;;;;;20.10;13.15;;;15.10;90.00;;;;;;5054259;28;20450;-60
2022/03/13 11:37:50;;;;;;;15.98;12.60;;;15.20;89.90;;;;;;5053813;28;20090;-62
2022/03/13 11:40:38;;;;;;;17.60;12.00;;;15.20;89.50;;;;;;5054613;28;20044;-60
2022/03/13 11:43:18;;;;;;;16.50;12.82;;;15.30;89.30;;;;;;5067642;28;20036;-61
2022/03/13 11:45:57;;;;;;;15.15;12.27;;;15.30;88.10;;;;;;5071549;28;20496;-60
2022/03/13 11:48:23;;;;;;;18.52;12.65;;;15.30;87.70;;;;;;5074016;28;20032;-60
2022/03/13 11:50:52;;;;;;;16.35;12.20;;;15.10;88.00;;;;;;5073850;28;20039;-60
2022/03/13 11:53:20;;;;;;;15.90;12.10;;;15.10;88.70;;;;;;5074231;28;20420;-61
2022/03/13 11:56:10;;;;;;;16.15;12.65;;;15.20;87.90;;;;;;5053637;28;20178;-60
2022/03/13 11:58:42;;;;;;;18.83;12.68;;;15.20;89.00;;;;;;5060251;28;20055;-60
2022/03/13 12:01:10;;;;;;;18.48;12.88;;;15.10;88.00;;;;;;5072343;28;20052;-60
2022/03/13 12:03:35;;;;;;;16.75;13.10;;;15.30;87.50;;;;;;5073569;28;20032;-61
2022/03/13 12:06:02;;;;;;;18.40;13.25;;;15.30;88.20;;;;;;5055627;28;20037;-62
2022/03/13 12:09:06;;;;;;;18.00;13.35;;;15.40;87.70;;;;;;5067256;28;20032;-61
2022/03/13 12:11:39;;;;;;;19.35;12.88;;;15.50;88.00;;;;;;5062943;28;20051;-60
2022/03/13 12:14:12;;;;;;;18.27;12.55;;;15.60;87.60;;;;;;5051993;28;20428;-61
2022/03/13 12:16:40;;;;;;;18.50;12.65;;;15.70;88.30;;;;;;5051482;28;20036;-61
2022/03/13 12:19:07;;;;;;;17.77;12.45;;;15.70;87.50;;;;;;5063070;28;20067;-63
2022/03/13 12:21:33;;;;;;;54.50;42.53;;;15.90;87.60;;;;;;5071859;28;20044;-61
2022/03/13 12:24:13;;;;;;;16.30;11.15;;;16.00;87.90;;;;;;5052724;28;20045;-61
2022/03/13 12:26:40;;;;;;;15.35;11.68;;;16.00;87.10;;;;;;5051344;28;20477;-60
2022/03/13 12:29:07;;;;;;;18.58;12.85;;;16.00;86.80;;;;;;5060712;28;20618;-61
2022/03/13 12:31:45;;;;;;;14.55;10.82;;;16.00;87.20;;;;;;5071248;28;20465;-61
2022/03/13 12:34:12;;;;;;;16.95;11.68;;;16.00;87.40;;;;;;5069117;28;20044;-60
2022/03/13 12:36:40;;;;;;;15.52;11.43;;;16.10;86.60;;;;;;5052790;28;20062;-61